首页
METAR-TAF:

METAR-TAF

机场 :

明尼阿波利斯-圣保罗国际机场

明尼阿波利斯, 明尼蘇達州, 美国

纬度: 44-52-59N, 经度: 093-13-44W, 海拔: 256米

当前天气观测

该预报发布于59分钟前的14:53 UTC
风速7节,风向西
温度 25°C
湿度 54%
气压 1018 hPa
能見度: 16.1公里
天空无云

METAR: KMSP 161453Z 27007KT 10SM CLR 25/15 A3005 RMK AO2 SLP170 T02500150 51003

时间: 10:52 (15:52 UTC)

预报

该预报发布于54分钟前的14:58 UTC
预报有效从16日的 15点(UTC)到 17日的 18点(UTC)
风速7节,风向西
能見度: 10公里
天空无云
从 16日的 1700点(UTC)
风速11节,风向西转西北,有时为19节阵风
能見度: 10公里
天空无云
从 17日的 0200点(UTC)
风速6节,风向西北
能見度: 10公里
天空无云
从 17日的 0600点(UTC)
风速4节,风向
能見度: 10公里
多云层高于7000英尺
从 17日的 1400点(UTC)
风速4节,风向北转东北
能見度: 10公里
少量云层高于7000英尺

TAF: KMSP 161458Z 1615/1718 28007KT P6SM SKC FM161700 29011G19KT P6SM SKC FM170200 32006KT P6SM SKC FM170600 35004KT P6SM BKN070 FM171400 03004KT P6SM FEW070

超过4000个机场的气象观测和天气预报(METAR&TAF报告)。

可查询的气象台以黄色和红色小点在地图上表示。

将鼠标移到小点上方,可查看气象台名称。

然后点击查看天气观测和预报。

如需切换地图:点击带黑十字的绿色按钮放大地图;点击带横线的绿色按钮缩小地图;或者点击绿色箭头查看邻近地区的地图。


METAR-TAF: